createdAt,value
2019-02-08T00:00:00.539Z,100560.77
2019-02-08T00:02:32.881Z,100566.71
2019-02-08T00:05:02.470Z,100563.70
2019-02-08T00:07:32.266Z,100563.53
2019-02-08T00:10:02.866Z,100561.45
2019-02-08T00:12:32.404Z,100557.52
2019-02-08T00:17:38.239Z,100563.16
2019-02-08T00:20:12.844Z,100561.27
2019-02-08T00:22:42.944Z,100566.71
2019-02-08T00:25:18.591Z,100567.09
2019-02-08T00:27:48.121Z,100561.45
2019-02-08T00:30:31.302Z,100563.36
2019-02-08T00:33:02.951Z,100570.71
2019-02-08T00:35:33.429Z,100574.09
2019-02-08T00:38:04.648Z,100571.59
2019-02-08T00:40:39.136Z,100569.55
2019-02-08T00:43:11.732Z,100568.25
2019-02-08T00:45:43.148Z,100568.25
2019-02-08T00:48:13.886Z,100562.58
2019-02-08T00:50:43.448Z,100564.15
2019-02-08T00:53:12.983Z,100562.91
2019-02-08T00:55:43.084Z,100573.76
2019-02-08T00:58:12.609Z,100571.50
2019-02-08T01:00:42.303Z,100564.42
2019-02-08T01:03:12.097Z,100573.34
2019-02-08T01:05:41.633Z,100569.92
2019-02-08T01:08:11.823Z,100572.91
2019-02-08T01:10:43.063Z,100569.68
2019-02-08T01:13:13.723Z,100572.55
2019-02-08T01:15:43.382Z,100576.63
2019-02-08T01:18:14.523Z,100571.88
2019-02-08T01:20:46.990Z,100572.66
2019-02-08T01:23:18.495Z,100566.84
2019-02-08T01:25:48.105Z,100580.17
2019-02-08T01:28:17.896Z,100577.27
2019-02-08T01:30:47.546Z,100591.75
2019-02-08T01:33:19.826Z,100582.46
2019-02-08T01:35:49.383Z,100584.80
2019-02-08T01:38:20.229Z,100585.38
2019-02-08T01:40:49.835Z,100579.77
2019-02-08T01:43:21.258Z,100582.36
2019-02-08T01:45:51.394Z,100581.67
2019-02-08T01:48:21.018Z,100576.82
2019-02-08T01:50:52.334Z,100579.83
2019-02-08T01:53:21.865Z,100577.27
2019-02-08T01:55:51.476Z,100572.48
2019-02-08T01:58:21.003Z,100570.84
2019-02-08T02:00:50.557Z,100569.37
2019-02-08T02:03:20.394Z,100560.79
2019-02-08T02:05:49.952Z,100561.64
2019-02-08T02:08:19.510Z,100565.54
2019-02-08T02:10:49.609Z,100561.68
2019-02-08T02:13:19.870Z,100561.74
2019-02-08T02:15:49.434Z,100563.24
2019-02-08T02:18:18.949Z,100561.74
2019-02-08T02:20:48.499Z,100561.68
2019-02-08T02:23:18.120Z,100566.88
2019-02-08T02:25:47.779Z,100569.09
2019-02-08T02:28:17.371Z,100574.83
2019-02-08T02:30:46.977Z,100568.58
2019-02-08T02:33:16.519Z,100571.63
2019-02-08T02:35:46.132Z,100575.63
2019-02-08T02:38:15.662Z,100577.67
2019-02-08T02:40:45.309Z,100573.38
2019-02-08T02:43:14.876Z,100573.38
2019-02-08T02:45:44.612Z,100576.72
2019-02-08T02:48:15.166Z,100578.88
2019-02-08T02:50:44.792Z,100574.16
2019-02-08T02:53:14.360Z,100583.12
2019-02-08T02:55:44.247Z,100580.17
2019-02-08T02:58:13.798Z,100563.31
2019-02-08T03:00:48.048Z,100578.53
2019-02-08T03:03:17.812Z,100577.17
2019-02-08T03:05:47.488Z,100576.28
2019-02-08T03:08:17.510Z,100577.00
2019-02-08T03:10:47.396Z,100564.59
2019-02-08T03:13:17.308Z,100566.23
2019-02-08T03:15:46.822Z,100570.41
2019-02-08T03:18:16.432Z,100568.55
2019-02-08T03:20:46.064Z,100574.71
2019-02-08T03:23:15.563Z,100571.26
2019-02-08T03:25:45.189Z,100572.76
2019-02-08T03:28:14.741Z,100570.13
2019-02-08T03:30:48.381Z,100561.03
2019-02-08T03:33:17.998Z,100570.41
2019-02-08T03:35:47.815Z,100563.39
2019-02-08T03:38:17.392Z,100557.88
2019-02-08T03:40:46.927Z,100557.54
2019-02-08T03:43:16.592Z,100558.45
2019-02-08T03:45:47.791Z,100550.42
2019-02-08T03:48:17.323Z,100548.55
2019-02-08T03:50:47.307Z,100546.97
2019-02-08T03:53:16.882Z,100546.45
2019-02-08T03:55:46.391Z,100542.63
2019-02-08T03:58:16.197Z,100546.90
2019-02-08T04:01:05.285Z,100546.97
2019-02-08T04:03:34.705Z,100550.80
2019-02-08T04:06:04.522Z,100547.82
2019-02-08T04:08:34.091Z,100550.80
2019-02-08T04:11:03.647Z,100544.99
2019-02-08T04:13:33.176Z,100549.05
2019-02-08T04:16:02.736Z,100551.48
2019-02-08T04:18:32.304Z,100548.52
2019-02-08T04:21:01.905Z,100540.41
2019-02-08T04:23:31.430Z,100535.11
2019-02-08T04:26:00.998Z,100534.67
2019-02-08T04:28:30.519Z,100538.16
2019-02-08T04:31:00.101Z,100534.77
2019-02-08T04:33:29.711Z,100530.42
2019-02-08T04:35:59.288Z,100524.89
2019-02-08T04:38:28.856Z,100530.87
2019-02-08T04:40:59.537Z,100530.94
2019-02-08T04:43:29.430Z,100529.54
2019-02-08T04:45:58.972Z,100526.88
2019-02-08T04:48:28.528Z,100533.78
2019-02-08T04:50:58.100Z,100531.66
2019-02-08T04:53:27.634Z,100527.22
2019-02-08T04:55:57.220Z,100529.88
2019-02-08T04:58:35.130Z,100522.53
2019-02-08T05:00:57.973Z,100516.72
2019-02-08T05:03:27.527Z,100511.19
2019-02-08T05:05:57.134Z,100517.16
2019-02-08T05:08:26.684Z,100511.29
2019-02-08T05:10:56.235Z,100511.22
2019-02-08T05:13:25.784Z,100505.92
2019-02-08T05:15:55.577Z,100506.02
2019-02-08T05:18:25.146Z,100505.81
2019-02-08T05:20:54.668Z,100503.42
2019-02-08T05:23:25.988Z,100499.77
2019-02-08T05:25:55.522Z,100506.53
2019-02-08T05:28:25.052Z,100508.45
2019-02-08T05:30:54.587Z,100506.98
2019-02-08T05:33:24.142Z,100504.34
2019-02-08T05:35:53.724Z,100509.58
2019-02-08T05:38:23.251Z,100510.50
2019-02-08T05:40:52.804Z,100512.45
2019-02-08T05:43:22.417Z,100504.66
2019-02-08T05:45:51.968Z,100508.75
2019-02-08T05:48:21.531Z,100508.84
2019-02-08T05:50:51.964Z,100502.26
2019-02-08T05:53:21.587Z,100512.50
2019-02-08T05:55:51.153Z,100513.67
2019-02-08T05:58:20.763Z,100500.98
2019-02-08T06:00:51.930Z,100503.30
2019-02-08T06:03:21.460Z,100491.45
2019-02-08T06:05:51.386Z,100484.34
2019-02-08T06:08:20.943Z,100482.80
2019-02-08T06:10:50.497Z,100483.52
2019-02-08T06:13:20.051Z,100481.27
2019-02-08T06:15:49.930Z,100486.01
2019-02-08T06:18:19.498Z,100484.06
2019-02-08T06:20:49.103Z,100486.66
2019-02-08T06:23:18.653Z,100482.21
2019-02-08T06:25:48.249Z,100482.52
2019-02-08T06:28:17.784Z,100489.36
2019-02-08T06:30:47.347Z,100497.18
2019-02-08T06:33:16.886Z,100493.95
2019-02-08T06:35:46.425Z,100483.21
2019-02-08T06:38:16.046Z,100480.89
2019-02-08T06:40:47.390Z,100484.55
2019-02-08T06:43:16.934Z,100484.98
2019-02-08T06:45:46.531Z,100489.30
2019-02-08T06:48:16.134Z,100479.80
2019-02-08T06:50:46.148Z,100488.23
2019-02-08T06:53:15.746Z,100490.39
2019-02-08T06:55:45.294Z,100486.59
2019-02-08T06:58:31.628Z,100485.30
2019-02-08T07:01:11.706Z,100482.70
2019-02-08T07:06:38.325Z,100485.44
2019-02-08T07:09:17.122Z,100489.72
2019-02-08T07:11:53.710Z,100494.02
2019-02-08T07:14:36.813Z,100494.47
2019-02-08T07:17:10.043Z,100491.28
2019-02-08T07:19:46.615Z,100493.78
2019-02-08T07:22:23.252Z,100499.22
2019-02-08T07:25:00.740Z,100493.48
2019-02-08T07:27:31.986Z,100494.67
2019-02-08T07:30:03.184Z,100490.81
2019-02-08T07:32:35.899Z,100493.13
2019-02-08T07:35:28.098Z,100498.05
2019-02-08T07:38:00.266Z,100505.23
2019-02-08T07:40:37.131Z,100504.38
2019-02-08T07:43:11.942Z,100493.45
2019-02-08T07:45:45.085Z,100483.91
2019-02-08T07:48:17.024Z,100492.80
2019-02-08T07:50:51.864Z,100495.73
2019-02-08T07:53:25.585Z,100499.62
2019-02-08T07:56:05.767Z,100492.96
2019-02-08T07:58:52.089Z,100496.41
2019-02-08T08:01:23.356Z,100491.48
2019-02-08T08:04:06.949Z,100489.50
2019-02-08T08:06:38.388Z,100493.30
2019-02-08T08:09:20.501Z,100488.62
2019-02-08T08:11:57.511Z,100498.39
2019-02-08T08:14:28.009Z,100489.98
2019-02-08T08:16:59.363Z,100488.23
2019-02-08T08:19:37.412Z,100493.36
2019-02-08T08:22:24.473Z,100489.69
2019-02-08T08:24:58.163Z,100487.72
2019-02-08T08:27:45.392Z,100487.84
2019-02-08T08:30:30.054Z,100490.44
2019-02-08T08:33:04.961Z,100481.57
2019-02-08T08:35:50.858Z,100483.77
2019-02-08T08:38:55.697Z,100485.23
2019-02-08T08:41:47.757Z,100476.34
2019-02-08T08:45:00.763Z,100485.92
2019-02-08T08:47:46.580Z,100475.70
2019-02-08T08:50:43.414Z,100473.11
2019-02-08T08:53:44.069Z,100476.53
2019-02-08T08:56:26.718Z,100480.50
2019-02-08T08:59:12.979Z,100476.27
2019-02-08T09:02:11.435Z,100473.67
2019-02-08T09:04:53.894Z,100473.48
2019-02-08T09:07:33.709Z,100480.44
2019-02-08T09:10:55.715Z,100461.86
2019-02-08T09:13:53.125Z,100468.80
2019-02-08T09:16:42.126Z,100460.89
2019-02-08T09:19:27.852Z,100458.03
2019-02-08T09:22:13.872Z,100457.43
2019-02-08T09:24:53.723Z,100463.82
2019-02-08T09:27:59.377Z,100455.38
2019-02-08T09:31:03.609Z,100449.54
2019-02-08T09:33:53.843Z,100447.06
2019-02-08T09:36:47.636Z,100436.91
2019-02-08T09:39:59.624Z,100435.61
2019-02-08T09:43:03.175Z,100436.34
2019-02-08T09:46:05.349Z,100433.42
2019-02-08T09:49:06.418Z,100435.38
2019-02-08T09:52:10.386Z,100447.02
2019-02-08T09:55:02.230Z,100447.30
2019-02-08T09:58:11.248Z,100451.40
2019-02-08T10:01:10.382Z,100449.38
2019-02-08T10:04:13.217Z,100439.70
2019-02-08T10:07:29.710Z,100439.91
2019-02-08T10:10:19.973Z,100441.55
2019-02-08T10:13:17.446Z,100436.33
2019-02-08T10:16:24.547Z,100424.38
2019-02-08T10:19:37.825Z,100432.44
2019-02-08T10:22:24.941Z,100433.29
2019-02-08T10:25:41.032Z,100426.58
2019-02-08T10:28:37.661Z,100417.74
2019-02-08T10:31:20.737Z,100426.78
2019-02-08T10:34:27.612Z,100409.73
2019-02-08T10:37:34.704Z,100410.22
2019-02-08T10:40:29.673Z,100412.33
2019-02-08T10:43:09.504Z,100415.78
2019-02-08T10:45:57.663Z,100419.45
2019-02-08T10:48:48.258Z,100413.05
2019-02-08T10:52:11.688Z,100412.92
2019-02-08T10:55:20.087Z,100422.31
2019-02-08T10:58:10.838Z,100415.16
2019-02-08T11:01:14.745Z,100412.07
2019-02-08T11:04:29.548Z,100408.91
2019-02-08T11:07:42.540Z,100415.16
2019-02-08T11:10:55.210Z,100402.95
2019-02-08T11:14:06.888Z,100394.70
2019-02-08T11:17:14.265Z,100387.53
2019-02-08T11:19:42.297Z,100377.25
2019-02-08T11:22:13.642Z,100385.13
2019-02-08T11:24:43.207Z,100377.62
2019-02-08T11:27:12.745Z,100367.61
2019-02-08T11:29:42.302Z,100362.41
2019-02-08T11:32:11.927Z,100350.92
2019-02-08T11:34:42.811Z,100344.17
2019-02-08T11:37:12.437Z,100337.05
2019-02-08T11:39:41.983Z,100331.56
2019-02-08T11:42:11.523Z,100323.41
2019-02-08T11:44:41.076Z,100324.70
2019-02-08T11:47:10.713Z,100325.25
2019-02-08T11:49:40.305Z,100324.26
2019-02-08T11:52:10.107Z,100317.10
2019-02-08T11:54:40.953Z,100309.45
2019-02-08T11:57:10.481Z,100309.45
2019-02-08T11:59:40.023Z,100305.55
2019-02-08T12:02:10.113Z,100310.25
2019-02-08T12:04:39.741Z,100306.88
2019-02-08T12:07:11.283Z,100304.84
2019-02-08T12:09:40.838Z,100297.47
2019-02-08T12:12:10.393Z,100291.95
2019-02-08T12:14:41.266Z,100287.52
2019-02-08T12:17:10.889Z,100277.25
2019-02-08T12:19:40.444Z,100285.84
2019-02-08T12:22:11.711Z,100282.62
2019-02-08T12:24:41.752Z,100283.33
2019-02-08T12:27:13.573Z,100271.05
2019-02-08T12:29:42.883Z,100266.39
2019-02-08T12:32:12.439Z,100262.53
2019-02-08T12:34:43.029Z,100260.53
2019-02-08T12:37:12.658Z,100247.88
2019-02-08T12:39:42.242Z,100245.27
2019-02-08T12:42:11.884Z,100246.48
2019-02-08T12:44:41.451Z,100236.03
2019-02-08T12:47:11.014Z,100231.66
2019-02-08T12:49:44.551Z,100233.12
2019-02-08T12:52:14.235Z,100230.81
2019-02-08T12:54:44.396Z,100225.50
2019-02-08T12:57:15.196Z,100220.06
2019-02-08T12:59:44.759Z,100230.27
2019-02-08T13:02:14.338Z,100217.52
2019-02-08T13:04:43.945Z,100220.98
2019-02-08T13:07:13.498Z,100214.23
2019-02-08T13:09:43.334Z,100204.26
2019-02-08T13:12:14.407Z,100207.02
2019-02-08T13:14:45.278Z,100199.09
2019-02-08T13:17:14.788Z,100195.79
2019-02-08T13:19:44.365Z,100192.66
2019-02-08T13:22:15.860Z,100187.59
2019-02-08T13:24:45.427Z,100182.74
2019-02-08T13:27:15.684Z,100182.74
2019-02-08T13:29:45.200Z,100182.38
2019-02-08T13:32:14.997Z,100184.36
2019-02-08T13:34:44.566Z,100181.44
2019-02-08T13:37:14.148Z,100186.30
2019-02-08T13:39:43.709Z,100180.14
2019-02-08T13:42:13.255Z,100165.78
2019-02-08T13:44:44.081Z,100170.24
2019-02-08T13:47:13.897Z,100161.50
2019-02-08T13:49:43.710Z,100160.50
2019-02-08T13:52:13.322Z,100146.59
2019-02-08T13:54:44.014Z,100145.30
2019-02-08T13:57:14.881Z,100136.41
2019-02-08T13:59:44.440Z,100145.14
2019-02-08T14:02:15.272Z,100147.75
2019-02-08T14:04:44.807Z,100132.53
2019-02-08T14:07:14.926Z,100139.97
2019-02-08T14:09:44.435Z,100138.23
2019-02-08T14:12:13.984Z,100135.09
2019-02-08T14:14:43.545Z,100134.86
2019-02-08T14:17:13.255Z,100126.27
2019-02-08T14:19:42.814Z,100127.58
2019-02-08T14:22:12.432Z,100129.25
2019-02-08T14:24:42.877Z,100119.91
2019-02-08T14:27:13.579Z,100123.66
2019-02-08T14:29:43.131Z,100116.57
2019-02-08T14:32:12.700Z,100111.36
2019-02-08T14:34:44.810Z,100116.98
2019-02-08T14:37:16.834Z,100100.77
2019-02-08T14:39:46.322Z,100095.36
2019-02-08T14:42:15.895Z,100092.30
2019-02-08T14:44:45.453Z,100091.16
2019-02-08T14:47:15.008Z,100076.72
2019-02-08T14:49:44.608Z,100065.22
2019-02-08T14:52:14.302Z,100065.13
2019-02-08T14:54:43.874Z,100065.92
2019-02-08T14:57:16.695Z,100067.93
2019-02-08T14:59:44.948Z,100058.31
2019-02-08T15:02:14.518Z,100054.34
2019-02-08T15:04:45.731Z,100070.23
2019-02-08T15:07:15.504Z,100067.23
2019-02-08T15:09:46.971Z,100050.50
2019-02-08T15:12:16.799Z,100065.39
2019-02-08T15:14:49.225Z,100049.30
2019-02-08T15:17:18.785Z,100041.02
2019-02-08T15:19:50.016Z,100042.47
2019-02-08T15:22:21.415Z,100035.41
2019-02-08T15:24:50.944Z,100052.91
2019-02-08T15:27:24.270Z,100032.20
2019-02-08T15:29:51.989Z,100043.78
2019-02-08T15:32:21.748Z,100030.53
2019-02-08T15:34:51.280Z,100031.74
2019-02-08T15:37:21.060Z,100036.05
2019-02-08T15:39:50.611Z,100029.59
2019-02-08T15:42:20.240Z,100031.89
2019-02-08T15:44:51.274Z,100027.28
2019-02-08T15:47:22.798Z,100023.53
2019-02-08T15:49:52.404Z,100018.80
2019-02-08T15:52:21.945Z,100016.50
2019-02-08T15:54:51.576Z,100009.38
2019-02-08T15:57:23.106Z,100015.65
2019-02-08T15:59:52.674Z,100013.10
2019-02-08T16:02:22.514Z,100012.20
2019-02-08T16:04:52.100Z,100008.74
2019-02-08T16:07:21.653Z,100000.63
2019-02-08T16:09:51.551Z,100013.45
2019-02-08T16:12:22.036Z,100001.56
2019-02-08T16:14:53.306Z,99993.59
2019-02-08T16:17:22.825Z,99985.92
2019-02-08T16:19:52.462Z,99988.14
2019-02-08T16:22:22.057Z,99973.50
2019-02-08T16:24:51.865Z,99974.20
2019-02-08T16:27:21.922Z,99959.78
2019-02-08T16:29:51.561Z,99966.75
2019-02-08T16:32:21.351Z,99965.84
2019-02-08T16:34:50.916Z,99955.20
2019-02-08T16:37:22.625Z,99965.78
2019-02-08T16:39:52.159Z,99970.84
2019-02-08T16:42:21.858Z,99959.23
2019-02-08T16:44:53.447Z,99949.66
2019-02-08T16:47:24.310Z,99946.30
2019-02-08T16:49:57.079Z,99950.59
2019-02-08T16:52:26.742Z,99948.36
2019-02-08T16:54:56.314Z,99949.66
2019-02-08T16:57:26.111Z,99937.57
2019-02-08T16:59:55.625Z,99937.87
2019-02-08T17:02:25.286Z,99941.84
2019-02-08T17:04:54.822Z,99933.58
2019-02-08T17:07:24.344Z,99942.18
2019-02-08T17:09:55.115Z,99930.06
2019-02-08T17:12:28.229Z,99929.91
2019-02-08T17:14:57.530Z,99916.89
2019-02-08T17:17:27.047Z,99914.28
2019-02-08T17:19:56.831Z,99914.42
2019-02-08T17:22:26.423Z,99905.06
2019-02-08T17:24:58.084Z,99905.23
2019-02-08T17:27:27.595Z,99897.80
2019-02-08T17:29:57.155Z,99883.02
2019-02-08T17:32:26.709Z,99884.23
2019-02-08T17:34:57.323Z,99892.59
2019-02-08T17:37:28.018Z,99864.64
2019-02-08T17:39:57.562Z,99861.33
2019-02-08T17:42:29.134Z,99861.17
2019-02-08T17:45:00.281Z,99863.54
2019-02-08T17:47:33.924Z,99856.71
2019-02-08T17:50:03.921Z,99849.74
2019-02-08T17:52:34.167Z,99851.95
2019-02-08T17:55:06.251Z,99850.84
2019-02-08T17:57:36.167Z,99849.70
2019-02-08T18:00:27.098Z,99846.84
2019-02-08T18:02:57.067Z,99829.08
2019-02-08T18:05:26.571Z,99832.61
2019-02-08T18:07:56.156Z,99837.12
2019-02-08T18:10:29.408Z,99838.17
2019-02-08T18:12:59.079Z,99830.97
2019-02-08T18:15:29.527Z,99830.66
2019-02-08T18:17:59.065Z,99835.80
2019-02-08T18:20:44.229Z,99833.20
2019-02-08T18:23:15.336Z,99825.67
2019-02-08T18:25:44.830Z,99817.77
2019-02-08T18:28:14.422Z,99828.19
2019-02-08T18:30:46.068Z,99822.52
2019-02-08T18:33:15.602Z,99819.06
2019-02-08T18:35:45.150Z,99832.35
2019-02-08T18:38:16.433Z,99812.72
2019-02-08T18:40:45.956Z,99823.43
2019-02-08T18:43:22.869Z,99813.86
2019-02-08T18:45:57.718Z,99805.68
2019-02-08T18:48:27.273Z,99803.73
2019-02-08T18:50:56.803Z,99809.33
2019-02-08T18:53:27.573Z,99800.27
2019-02-08T18:55:57.438Z,99785.78
2019-02-08T18:58:26.981Z,99791.64
2019-02-08T19:00:58.199Z,99781.22
2019-02-08T19:03:27.821Z,99786.43
2019-02-08T19:05:57.492Z,99782.72
2019-02-08T19:08:27.034Z,99772.55
2019-02-08T19:10:59.745Z,99771.31
2019-02-08T19:13:29.358Z,99774.34
2019-02-08T19:15:58.926Z,99768.97
2019-02-08T19:18:32.184Z,99762.45
2019-02-08T19:21:04.336Z,99758.64
2019-02-08T19:23:34.005Z,99750.27
2019-02-08T19:26:06.570Z,99755.19
2019-02-08T19:28:36.203Z,99755.29
2019-02-08T19:31:06.145Z,99750.53
2019-02-08T19:33:39.376Z,99747.92
2019-02-08T19:36:08.870Z,99750.53
2019-02-08T19:38:40.460Z,99742.72
2019-02-08T19:41:10.012Z,99740.27
2019-02-08T19:43:41.010Z,99731.22
2019-02-08T19:46:10.525Z,99730.14
2019-02-08T19:48:40.096Z,99726.63
2019-02-08T19:51:11.570Z,99727.86
2019-02-08T19:53:41.206Z,99713.59
2019-02-08T19:56:10.780Z,99709.69
2019-02-08T19:58:40.511Z,99699.33
2019-02-08T20:01:10.418Z,99680.00
2019-02-08T20:03:40.383Z,99671.05
2019-02-08T20:06:13.056Z,99666.39
2019-02-08T20:08:42.622Z,99678.29
2019-02-08T20:11:14.006Z,99685.09
2019-02-08T20:13:43.593Z,99678.12
2019-02-08T20:16:13.199Z,99679.20
2019-02-08T20:18:44.793Z,99681.06
2019-02-08T20:21:14.388Z,99677.44
2019-02-08T20:23:44.466Z,99683.33
2019-02-08T20:26:15.839Z,99666.08
2019-02-08T20:28:45.360Z,99668.34
2019-02-08T20:31:20.696Z,99667.14
2019-02-08T20:33:47.675Z,99663.86
2019-02-08T20:36:17.635Z,99660.17
2019-02-08T20:38:47.316Z,99659.39
2019-02-08T20:41:16.909Z,99646.75
2019-02-08T20:43:46.786Z,99649.25
2019-02-08T20:46:16.832Z,99642.28
2019-02-08T20:48:48.991Z,99635.70
2019-02-08T20:51:20.553Z,99638.48
2019-02-08T20:53:53.157Z,99611.11
2019-02-08T20:56:23.366Z,99621.25
2019-02-08T20:58:54.431Z,99616.22
2019-02-08T21:01:26.161Z,99604.31
2019-02-08T21:03:58.393Z,99582.63
2019-02-08T21:06:28.233Z,99578.89
2019-02-08T21:08:58.001Z,99574.63
2019-02-08T21:11:30.764Z,99578.61
2019-02-08T21:14:00.334Z,99575.77
2019-02-08T21:16:32.205Z,99571.30
2019-02-08T21:19:01.725Z,99563.09
2019-02-08T21:21:31.292Z,99562.55
2019-02-08T21:24:01.342Z,99554.34
2019-02-08T21:26:32.154Z,99545.33
2019-02-08T21:29:01.688Z,99540.76
2019-02-08T21:31:31.618Z,99541.78
2019-02-08T21:34:02.683Z,99544.63
2019-02-08T21:36:38.787Z,99543.25
2019-02-08T21:39:06.169Z,99541.28
2019-02-08T21:41:36.153Z,99524.87
2019-02-08T21:44:06.340Z,99512.90
2019-02-08T21:46:36.294Z,99524.62
2019-02-08T21:49:07.367Z,99526.56
2019-02-08T21:51:39.169Z,99521.80
2019-02-08T21:54:08.941Z,99522.92
2019-02-08T21:56:40.078Z,99508.14
2019-02-08T21:59:12.824Z,99509.52
2019-02-08T22:01:44.607Z,99504.59
2019-02-08T22:04:15.418Z,99508.50
2019-02-08T22:06:46.207Z,99483.56
2019-02-08T22:09:16.481Z,99498.42
2019-02-08T22:11:46.243Z,99489.91
2019-02-08T22:14:15.969Z,99478.14
2019-02-08T22:16:46.719Z,99500.28
2019-02-08T22:19:16.743Z,99503.46
2019-02-08T22:21:46.500Z,99503.56
2019-02-08T22:24:19.338Z,99488.67
2019-02-08T22:26:52.813Z,99498.25
2019-02-08T22:29:22.345Z,99495.11
2019-02-08T22:31:51.950Z,99491.84
2019-02-08T22:34:21.527Z,99487.30
2019-02-08T22:36:53.447Z,99491.10
2019-02-08T22:39:23.045Z,99495.11
2019-02-08T22:41:58.893Z,99479.28
2019-02-08T22:44:27.217Z,99489.91
2019-02-08T22:46:58.727Z,99480.58
2019-02-08T22:49:30.108Z,99476.50
2019-02-08T22:51:59.992Z,99482.09
2019-02-08T22:54:29.526Z,99476.88
2019-02-08T22:57:00.346Z,99475.86
2019-02-08T22:59:29.872Z,99465.55
2019-02-08T23:01:59.502Z,99458.36
2019-02-08T23:04:29.039Z,99457.23
2019-02-08T23:06:58.576Z,99456.53
2019-02-08T23:09:30.501Z,99452.90
2019-02-08T23:12:00.424Z,99448.32
2019-02-08T23:14:32.116Z,99449.91
2019-02-08T23:17:02.134Z,99446.56
2019-02-08T23:19:31.826Z,99445.83
2019-02-08T23:22:02.630Z,99436.88
2019-02-08T23:24:34.788Z,99438.19
2019-02-08T23:27:04.486Z,99436.88
2019-02-08T23:29:34.010Z,99432.88
2019-02-08T23:32:03.664Z,99428.02
2019-02-08T23:34:33.304Z,99431.80
2019-02-08T23:37:02.843Z,99416.34
2019-02-08T23:39:34.303Z,99413.70
2019-02-08T23:42:03.841Z,99412.56
2019-02-08T23:44:33.851Z,99418.89
2019-02-08T23:47:03.408Z,99408.94
2019-02-08T23:49:32.955Z,99403.05
2019-02-08T23:52:02.537Z,99397.28
2019-02-08T23:54:32.048Z,99399.25
2019-02-08T23:57:01.612Z,99395.25
2019-02-08T23:59:37.888Z,99392.92
